Time;durP1;ratioP1;P1;durP2;ratioP2;P2;SDS_P1;SDS_P2;PMS_P1;PMS_P2;Temp;Humidity;BMP_temperature;BMP_pressure;BME280_temperature;BME280_humidity;BME280_pressure;Samples;Min_cycle;Max_cycle;Signal;HPM_P1;HPM_P2
2022/05/18 00:00:52;;;;;;;7.60;2.92;;;19.20;99.90;;;;;;5071609;28;20493;-63
2022/05/18 00:03:22;;;;;;;4.22;2.42;;;19.20;99.90;;;;;;5072012;28;20438;-63
2022/05/18 00:05:48;;;;;;;4.18;2.15;;;19.20;99.90;;;;;;5071794;28;20397;-63
2022/05/18 00:08:15;;;;;;;5.05;2.20;;;19.20;99.90;;;;;;5071484;28;20032;-63
2022/05/18 00:10:44;;;;;;;5.00;2.72;;;19.20;99.90;;;;;;5071383;28;20111;-63
2022/05/18 00:13:11;;;;;;;4.50;2.22;;;19.10;99.90;;;;;;5070315;28;20123;-64
2022/05/18 00:15:38;;;;;;;4.85;2.45;;;19.20;99.90;;;;;;5071406;28;20039;-64
2022/05/18 00:18:05;;;;;;;4.35;2.33;;;19.20;99.90;;;;;;5071411;28;20032;-64
2022/05/18 00:20:32;;;;;;;4.20;2.30;;;19.10;99.90;;;;;;5071187;28;20056;-63
2022/05/18 00:23:01;;;;;;;4.55;2.40;;;19.20;99.90;;;;;;5086395;22;20032;-67
2022/05/18 00:25:38;;;;;;;5.97;2.35;;;19.20;99.90;;;;;;5050322;28;20029;-67
2022/05/18 00:28:05;;;;;;;4.50;2.53;;;19.20;99.90;;;;;;5050941;28;20029;-66
2022/05/18 00:30:32;;;;;;;4.35;2.40;;;19.20;99.90;;;;;;5050839;28;20033;-67
2022/05/18 00:33:03;;;;;;;6.90;2.40;;;19.20;99.90;;;;;;5050961;28;20378;-67
2022/05/18 00:35:30;;;;;;;3.80;2.05;;;19.20;99.90;;;;;;5050914;28;20588;-66
2022/05/18 00:37:56;;;;;;;4.35;1.98;;;19.20;99.90;;;;;;5050683;28;20036;-65
2022/05/18 00:40:22;;;;;;;4.72;2.40;;;19.20;99.90;;;;;;5050637;28;20503;-65
2022/05/18 00:42:48;;;;;;;4.40;2.10;;;19.20;99.90;;;;;;5050803;28;20036;-66
2022/05/18 00:45:15;;;;;;;3.58;1.90;;;19.10;99.90;;;;;;5050914;28;20033;-66
2022/05/18 00:47:41;;;;;;;4.30;2.45;;;19.10;99.90;;;;;;5050549;28;20035;-66
2022/05/18 00:50:10;;;;;;;4.00;2.10;;;19.10;99.90;;;;;;5050279;28;20504;-66
2022/05/18 00:52:39;;;;;;;;;;;19.10;99.90;;;;;;5051182;28;20504;-66
2022/05/18 00:55:08;;;;;;;3.42;2.15;;;19.10;99.90;;;;;;5050902;28;20304;-66
2022/05/18 00:57:47;;;;;;;5.57;2.70;;;19.10;99.90;;;;;;5050625;28;20032;-66
2022/05/18 01:00:15;;;;;;;4.28;2.20;;;19.10;99.90;;;;;;5050486;28;20025;-66
2022/05/18 01:02:48;;;;;;;3.83;2.30;;;19.10;99.90;;;;;;5050590;28;20035;-66
2022/05/18 01:05:19;;;;;;;5.50;2.10;;;19.10;99.90;;;;;;5050627;28;20382;-65
2022/05/18 01:07:49;;;;;;;6.20;2.58;;;19.10;99.90;;;;;;5050349;28;20025;-65
2022/05/18 01:10:16;;;;;;;3.55;2.30;;;19.10;99.90;;;;;;5050399;28;20033;-66
2022/05/18 01:12:42;;;;;;;5.13;2.30;;;19.10;99.90;;;;;;5050640;28;20429;-66
2022/05/18 01:15:11;;;;;;;4.05;2.22;;;19.10;99.90;;;;;;5050636;28;20040;-66
2022/05/18 01:17:43;;;;;;;5.43;2.80;;;19.10;99.90;;;;;;5050537;28;20122;-66
2022/05/18 01:20:13;;;;;;;5.63;2.28;;;19.20;99.90;;;;;;5050351;28;20060;-66
2022/05/18 01:22:57;;;;;;;3.75;2.40;;;19.20;99.90;;;;;;5050652;28;20104;-66
2022/05/18 01:26:02;;;;;;;4.32;2.10;;;19.20;99.90;;;;;;5050402;28;20033;-66
2022/05/18 01:28:53;;;;;;;4.50;2.30;;;19.20;99.90;;;;;;5050426;28;20033;-66
2022/05/18 01:31:51;;;;;;;4.13;2.50;;;19.20;99.90;;;;;;5049932;28;20040;-66
2022/05/18 01:34:20;;;;;;;6.88;2.40;;;19.20;99.90;;;;;;5050644;28;20389;-66
2022/05/18 01:36:47;;;;;;;4.95;2.38;;;19.20;99.90;;;;;;5050263;28;20096;-66
2022/05/18 01:39:19;;;;;;;5.10;2.30;;;19.20;99.90;;;;;;5050167;28;20112;-66
2022/05/18 01:41:55;;;;;;;4.25;2.40;;;19.20;99.90;;;;;;5050443;28;20025;-66
2022/05/18 01:44:22;;;;;;;4.18;2.17;;;19.10;99.90;;;;;;5050450;28;20056;-67
2022/05/18 01:46:48;;;;;;;4.55;2.17;;;19.10;99.90;;;;;;5049969;28;20029;-67
2022/05/18 01:49:14;;;;;;;4.03;2.10;;;19.10;99.90;;;;;;5050154;28;20029;-66
2022/05/18 01:51:44;;;;;;;3.65;2.20;;;19.10;99.90;;;;;;5050217;28;20040;-66
2022/05/18 01:54:11;;;;;;;3.90;2.17;;;19.10;99.90;;;;;;5050251;28;20025;-66
2022/05/18 01:56:37;;;;;;;5.63;2.53;;;19.10;99.90;;;;;;5050119;28;20029;-67
2022/05/18 01:59:03;;;;;;;5.38;2.67;;;19.10;99.90;;;;;;5049802;28;20112;-67
2022/05/18 02:01:29;;;;;;;5.43;2.30;;;19.10;99.90;;;;;;5050407;28;20029;-66
2022/05/18 02:03:55;;;;;;;3.65;2.08;;;19.10;99.90;;;;;;5053051;28;20496;-67
2022/05/18 02:06:22;;;;;;;3.88;2.20;;;19.10;99.90;;;;;;5053583;28;20028;-67
2022/05/18 02:08:48;;;;;;;4.57;2.45;;;19.10;99.90;;;;;;5053489;28;20450;-66
2022/05/18 02:11:16;;;;;;;3.90;2.13;;;19.10;99.90;;;;;;5053435;28;20043;-66
2022/05/18 02:13:43;;;;;;;6.15;2.63;;;19.10;99.90;;;;;;5053428;28;20056;-66
2022/05/18 02:16:09;;;;;;;5.88;2.47;;;19.10;99.90;;;;;;5053367;28;20065;-66
2022/05/18 02:18:35;;;;;;;4.80;2.30;;;19.10;99.90;;;;;;5053160;28;20029;-67
2022/05/18 02:21:08;;;;;;;5.05;2.35;;;19.10;99.90;;;;;;5053402;28;20028;-67
2022/05/18 02:23:35;;;;;;;3.50;2.13;;;19.00;99.90;;;;;;5053354;28;20496;-67
2022/05/18 02:26:08;;;;;;;4.60;2.50;;;19.10;99.90;;;;;;5052969;28;20025;-66
2022/05/18 02:28:35;;;;;;;4.75;2.50;;;19.00;99.90;;;;;;5053259;28;20366;-67
2022/05/18 02:31:01;;;;;;;5.15;2.67;;;19.00;99.90;;;;;;5053075;28;20040;-67
2022/05/18 02:33:27;;;;;;;5.82;2.40;;;19.00;99.90;;;;;;5053182;28;20043;-67
2022/05/18 02:35:53;;;;;;;5.65;2.35;;;19.00;99.90;;;;;;5052877;28;20111;-66
2022/05/18 02:38:19;;;;;;;5.10;2.53;;;18.90;99.90;;;;;;5053124;28;20039;-66
2022/05/18 02:40:45;;;;;;;6.13;2.90;;;18.90;99.90;;;;;;5052693;28;20033;-67
2022/05/18 02:43:11;;;;;;;8.77;4.82;;;18.90;99.90;;;;;;5052916;28;20247;-66
2022/05/18 02:45:37;;;;;;;8.27;5.00;;;18.90;99.90;;;;;;5052768;28;20028;-67
2022/05/18 02:48:03;;;;;;;6.22;3.72;;;18.90;99.90;;;;;;5052928;28;20071;-67
2022/05/18 02:50:29;;;;;;;5.35;3.00;;;18.90;99.90;;;;;;5052711;28;20100;-66
2022/05/18 02:52:55;;;;;;;6.65;2.70;;;18.90;99.90;;;;;;5052752;28;20028;-66
2022/05/18 02:58:06;;;;;;;6.78;2.45;;;19.00;99.90;;;;;;5052881;28;20439;-67
2022/05/18 03:00:32;;;;;;;8.50;2.70;;;19.00;99.90;;;;;;5052374;28;20512;-67
2022/05/18 03:02:58;;;;;;;3.97;2.40;;;19.00;99.90;;;;;;5052653;28;20060;-67
2022/05/18 03:05:24;;;;;;;5.25;2.58;;;19.00;99.90;;;;;;5052634;28;20394;-66
2022/05/18 03:07:50;;;;;;;3.55;2.15;;;19.00;99.90;;;;;;5052178;28;20028;-67
2022/05/18 03:10:18;;;;;;;3.92;2.33;;;19.00;99.90;;;;;;5052231;28;20032;-66
2022/05/18 03:12:44;;;;;;;5.50;2.47;;;18.90;99.90;;;;;;5052528;28;20025;-66
2022/05/18 03:15:12;;;;;;;5.45;2.28;;;19.00;99.90;;;;;;5052229;28;20397;-66
2022/05/18 03:17:39;;;;;;;4.90;2.40;;;18.90;99.90;;;;;;5052178;28;20025;-66
2022/05/18 03:20:06;;;;;;;5.63;2.60;;;19.00;99.90;;;;;;5052086;28;20598;-66
2022/05/18 03:25:18;;;;;;;5.72;2.40;;;18.90;99.90;;;;;;5052235;28;20025;-67
2022/05/18 03:27:44;;;;;;;3.75;2.13;;;18.90;99.90;;;;;;5051978;28;20057;-67
2022/05/18 03:30:12;;;;;;;4.03;2.30;;;18.90;99.90;;;;;;5052292;28;20029;-66
2022/05/18 03:32:39;;;;;;;4.40;2.25;;;19.00;99.90;;;;;;5052131;28;20060;-67
2022/05/18 03:35:07;;;;;;;6.63;2.90;;;19.00;99.90;;;;;;5052275;28;20452;-67
2022/05/18 03:37:33;;;;;;;4.60;2.30;;;18.90;99.90;;;;;;5051770;28;20382;-66
2022/05/18 03:39:59;;;;;;;5.82;2.70;;;18.90;99.90;;;;;;5051674;28;20051;-66
2022/05/18 03:42:26;;;;;;;4.03;2.60;;;18.90;99.90;;;;;;5051871;28;20029;-67
2022/05/18 03:44:52;;;;;;;4.65;2.70;;;18.90;99.90;;;;;;5051841;28;20482;-67
2022/05/18 03:47:18;;;;;;;5.78;2.70;;;18.90;99.90;;;;;;5051554;28;20035;-67
2022/05/18 03:49:44;;;;;;;4.10;2.45;;;18.90;99.90;;;;;;5051497;28;20116;-67
2022/05/18 03:52:10;;;;;;;4.20;2.53;;;18.90;99.90;;;;;;5051675;28;20051;-68
2022/05/18 03:54:36;;;;;;;4.82;2.60;;;18.90;99.90;;;;;;5051671;28;20024;-67
2022/05/18 03:57:03;;;;;;;5.80;2.50;;;18.90;99.90;;;;;;5051432;28;20040;-67
2022/05/18 03:59:29;;;;;;;3.95;2.53;;;18.80;99.90;;;;;;5051408;28;20079;-67
2022/05/18 04:01:55;;;;;;;5.00;2.78;;;18.80;99.90;;;;;;5051472;28;20025;-67
2022/05/18 04:04:20;;;;;;;5.13;2.78;;;18.80;99.90;;;;;;5051740;28;20025;-67
2022/05/18 04:06:46;;;;;;;4.75;2.53;;;18.80;99.90;;;;;;5050108;28;20017;-67
2022/05/18 04:09:12;;;;;;;5.25;2.53;;;18.80;99.90;;;;;;5051302;28;20087;-67
2022/05/18 04:11:38;;;;;;;4.70;2.72;;;18.80;99.90;;;;;;5051547;28;20452;-67
2022/05/18 04:14:04;;;;;;;4.97;2.85;;;18.80;99.90;;;;;;5051322;28;20119;-68
2022/05/18 04:16:30;;;;;;;7.05;2.88;;;18.80;99.90;;;;;;5051106;28;20120;-67
2022/05/18 04:18:56;;;;;;;5.82;2.67;;;18.80;99.90;;;;;;5051148;28;20025;-67
2022/05/18 04:21:22;;;;;;;7.15;2.88;;;18.80;99.90;;;;;;5051488;28;20036;-67
2022/05/18 04:23:49;;;;;;;5.97;2.92;;;18.90;99.90;;;;;;5051157;28;20116;-67
2022/05/18 04:26:15;;;;;;;6.88;3.13;;;18.90;99.90;;;;;;5050564;28;20047;-67
2022/05/18 04:28:41;;;;;;;6.88;3.10;;;18.80;99.90;;;;;;5051001;28;20481;-67
2022/05/18 04:31:07;;;;;;;5.22;3.10;;;18.90;99.90;;;;;;5051191;28;20539;-67
2022/05/18 04:33:33;;;;;;;6.28;3.22;;;18.90;99.90;;;;;;5051044;28;20039;-67
2022/05/18 04:36:02;;;;;;;4.55;2.60;;;18.90;99.90;;;;;;5050818;28;20021;-67
2022/05/18 04:38:29;;;;;;;5.60;2.50;;;18.90;99.90;;;;;;5050798;28;20036;-67
2022/05/18 04:40:56;;;;;;;7.63;2.88;;;18.90;99.90;;;;;;5050912;28;20025;-67
2022/05/18 04:43:22;;;;;;;5.45;2.60;;;18.90;99.90;;;;;;5050901;28;20029;-68
2022/05/18 04:45:51;;;;;;;5.55;2.95;;;18.90;99.90;;;;;;5050611;28;20052;-67
2022/05/18 04:48:19;;;;;;;4.18;2.50;;;18.90;99.90;;;;;;5051060;28;20537;-67
2022/05/18 04:50:47;;;;;;;6.07;2.30;;;18.90;99.90;;;;;;5050934;28;20040;-67
2022/05/18 04:53:15;;;;;;;6.28;3.15;;;19.00;99.90;;;;;;5050906;28;20348;-67
2022/05/18 04:55:41;;;;;;;8.30;2.67;;;19.00;99.90;;;;;;5050665;28;20174;-67
2022/05/18 04:58:07;;;;;;;6.43;2.65;;;19.00;99.90;;;;;;5050995;28;20391;-67
2022/05/18 05:00:33;;;;;;;4.57;2.60;;;19.00;99.90;;;;;;5050605;28;20029;-67
2022/05/18 05:03:00;;;;;;;5.90;2.67;;;19.00;99.90;;;;;;5050730;28;20025;-67
2022/05/18 05:05:26;;;;;;;4.90;2.90;;;19.00;99.90;;;;;;5050642;28;20481;-67
2022/05/18 05:07:54;;;;;;;6.18;2.90;;;19.10;99.90;;;;;;5049332;28;20449;-67
2022/05/18 05:10:20;;;;;;;4.78;2.60;;;19.10;99.90;;;;;;5050539;28;20033;-67
2022/05/18 05:12:46;;;;;;;7.63;3.17;;;19.10;99.90;;;;;;5050542;28;20052;-67
2022/05/18 05:15:13;;;;;;;7.35;4.20;;;19.20;99.90;;;;;;5050627;28;20458;-67
2022/05/18 05:17:40;;;;;;;6.70;3.20;;;19.20;99.90;;;;;;5050648;28;20048;-67
2022/05/18 05:20:07;;;;;;;7.53;3.45;;;19.20;99.90;;;;;;5050287;28;20037;-67
2022/05/18 05:22:33;;;;;;;6.88;3.38;;;19.20;99.90;;;;;;5050862;28;20087;-67
2022/05/18 05:24:59;;;;;;;9.10;3.72;;;19.20;99.90;;;;;;5050630;28;20033;-67
2022/05/18 05:27:25;;;;;;;6.78;3.10;;;19.30;99.90;;;;;;5050246;28;20029;-68
2022/05/18 05:29:51;;;;;;;8.82;3.53;;;19.30;99.90;;;;;;5050320;28;20036;-68
2022/05/18 05:32:17;;;;;;;11.63;3.67;;;19.30;99.90;;;;;;5050409;28;20028;-67
2022/05/18 05:34:44;;;;;;;7.35;3.30;;;19.30;99.90;;;;;;5050379;28;20401;-67
2022/05/18 05:37:10;;;;;;;5.95;3.88;;;19.40;99.90;;;;;;5050575;28;20029;-67
2022/05/18 05:39:36;;;;;;;7.38;3.50;;;19.40;99.90;;;;;;5054378;28;20055;-67
2022/05/18 05:42:03;;;;;;;10.23;3.58;;;19.40;99.90;;;;;;5052808;28;20025;-67
2022/05/18 05:44:29;;;;;;;7.65;3.17;;;19.40;99.90;;;;;;5054052;28;20021;-67
2022/05/18 05:46:56;;;;;;;7.15;3.50;;;19.50;99.90;;;;;;5054287;28;20024;-67
2022/05/18 05:49:22;;;;;;;5.13;3.10;;;19.60;99.90;;;;;;5053949;28;20041;-67
2022/05/18 05:51:48;;;;;;;6.53;3.00;;;19.60;99.90;;;;;;5053879;28;20040;-67
2022/05/18 05:54:14;;;;;;;7.65;2.92;;;19.60;99.90;;;;;;5054026;28;20398;-67
2022/05/18 05:56:41;;;;;;;6.07;2.65;;;19.70;99.90;;;;;;5053648;28;20064;-67
2022/05/18 05:59:06;;;;;;;4.60;2.58;;;19.70;99.90;;;;;;5053914;28;20053;-67
2022/05/18 06:01:33;;;;;;;5.22;2.67;;;19.80;99.90;;;;;;5054141;28;20103;-67
2022/05/18 06:04:00;;;;;;;14.98;4.03;;;19.80;99.90;;;;;;5053698;28;20047;-67
2022/05/18 06:06:26;;;;;;;13.45;3.13;;;19.90;99.90;;;;;;5053472;28;20678;-67
2022/05/18 06:08:52;;;;;;;19.33;3.33;;;19.90;99.90;;;;;;5053506;28;20094;-67
2022/05/18 06:11:19;;;;;;;11.73;3.17;;;19.90;99.90;;;;;;5053686;28;20378;-67
2022/05/18 06:13:45;;;;;;;5.50;2.75;;;20.00;99.90;;;;;;5053600;28;20037;-67
2022/05/18 06:16:10;;;;;;;4.95;2.58;;;20.00;99.90;;;;;;5053476;28;20443;-67
2022/05/18 06:18:38;;;;;;;3.88;2.50;;;20.00;99.90;;;;;;5053624;28;20037;-67
2022/05/18 06:21:05;;;;;;;7.40;2.58;;;20.00;99.90;;;;;;5053761;28;20029;-67
2022/05/18 06:23:31;;;;;;;9.00;3.03;;;20.00;99.90;;;;;;5053562;28;20031;-67
2022/05/18 06:26:01;;;;;;;6.82;3.88;;;20.00;99.90;;;;;;5053197;28;20398;-65
2022/05/18 06:28:27;;;;;;;6.05;3.55;;;20.10;99.90;;;;;;5053606;28;20037;-67
2022/05/18 06:30:53;;;;;;;6.97;3.80;;;20.10;99.90;;;;;;5053379;28;20029;-67
2022/05/18 06:33:19;;;;;;;7.63;4.30;;;20.20;99.90;;;;;;5053232;28;20036;-67
2022/05/18 06:35:47;;;;;;;8.50;3.85;;;20.20;99.90;;;;;;5053065;28;20486;-67
2022/05/18 06:38:15;;;;;;;8.20;3.27;;;20.20;99.90;;;;;;5053156;28;20171;-65
2022/05/18 06:43:27;;;;;;;7.45;2.70;;;20.30;99.90;;;;;;5052942;28;20090;-67
2022/05/18 06:45:53;;;;;;;9.82;3.42;;;20.40;99.90;;;;;;5052875;28;20036;-66
2022/05/18 06:48:19;;;;;;;6.15;3.38;;;20.40;99.90;;;;;;5052424;28;20033;-66
2022/05/18 06:50:45;;;;;;;8.25;3.40;;;20.40;99.90;;;;;;5051587;28;20039;-66
2022/05/18 06:53:12;;;;;;;5.78;2.75;;;20.40;99.90;;;;;;5053036;28;20541;-66
2022/05/18 06:55:37;;;;;;;4.18;2.60;;;20.50;99.90;;;;;;5052603;28;20037;-66
2022/05/18 06:58:03;;;;;;;7.13;3.40;;;20.50;99.90;;;;;;5052660;28;20029;-66
2022/05/18 07:00:29;;;;;;;5.55;2.58;;;20.60;99.90;;;;;;5052421;28;20367;-66
2022/05/18 07:02:55;;;;;;;5.15;2.80;;;20.70;99.90;;;;;;5052735;28;20433;-66
2022/05/18 07:05:22;;;;;;;4.00;2.75;;;20.70;99.90;;;;;;5052636;28;20559;-66
2022/05/18 07:07:48;;;;;;;5.88;2.80;;;20.70;99.90;;;;;;5052688;28;20013;-66
2022/05/18 07:10:13;;;;;;;4.35;2.60;;;20.80;99.90;;;;;;5052263;28;20576;-66
2022/05/18 07:12:39;;;;;;;5.47;2.67;;;20.80;99.90;;;;;;5052518;28;20032;-66
2022/05/18 07:15:06;;;;;;;7.95;2.80;;;20.80;99.90;;;;;;5052500;28;20459;-66
2022/05/18 07:17:32;;;;;;;6.55;2.78;;;20.80;99.90;;;;;;5052082;28;20033;-67
2022/05/18 07:19:58;;;;;;;4.03;2.50;;;20.90;99.90;;;;;;5052051;28;20071;-66
2022/05/18 07:22:24;;;;;;;5.55;2.40;;;20.90;99.90;;;;;;5052526;28;20387;-66
2022/05/18 07:24:50;;;;;;;4.05;2.35;;;20.90;99.90;;;;;;5052070;28;20557;-66
2022/05/18 07:27:17;;;;;;;4.05;2.00;;;20.90;99.90;;;;;;5052013;28;20092;-66
2022/05/18 07:29:43;;;;;;;6.70;2.72;;;20.90;99.90;;;;;;5051896;28;20029;-66
2022/05/18 07:32:12;;;;;;;5.13;2.30;;;20.90;99.90;;;;;;5052520;28;20517;-67
2022/05/18 07:34:38;;;;;;;4.10;2.30;;;20.90;99.90;;;;;;5052060;28;20554;-66
2022/05/18 07:37:06;;;;;;;5.95;2.75;;;20.90;99.90;;;;;;5051806;28;20405;-66
2022/05/18 07:39:32;;;;;;;6.32;2.78;;;21.00;99.90;;;;;;5051652;28;20499;-66
2022/05/18 07:41:59;;;;;;;5.40;2.40;;;21.10;99.90;;;;;;5051938;28;20075;-66
2022/05/18 07:44:26;;;;;;;5.15;2.50;;;21.20;99.90;;;;;;5052026;28;20287;-66
2022/05/18 07:46:52;;;;;;;5.82;2.88;;;21.20;99.90;;;;;;5051630;28;20033;-66
2022/05/18 07:49:19;;;;;;;7.03;3.70;;;21.20;99.90;;;;;;5051914;28;20037;-66
2022/05/18 07:51:45;;;;;;;6.88;3.22;;;21.30;99.90;;;;;;5051689;28;20032;-66
2022/05/18 07:54:11;;;;;;;4.63;2.85;;;21.30;99.90;;;;;;5051740;28;20024;-67
2022/05/18 07:56:38;;;;;;;6.50;2.90;;;21.30;99.90;;;;;;5051445;28;20029;-66
2022/05/18 07:59:06;;;;;;;7.88;2.80;;;21.30;99.90;;;;;;5051339;28;20064;-66
2022/05/18 08:01:33;;;;;;;9.95;3.47;;;21.30;99.90;;;;;;5051100;28;20029;-66
2022/05/18 08:03:59;;;;;;;7.57;3.40;;;21.20;99.90;;;;;;5051796;28;20416;-66
2022/05/18 08:06:25;;;;;;;6.57;2.63;;;21.40;99.90;;;;;;5051628;28;20033;-66
2022/05/18 08:08:53;;;;;;;6.47;2.67;;;21.50;99.90;;;;;;5051722;28;20024;-66
2022/05/18 08:16:48;;;;;;;7.53;3.33;;;21.60;99.90;;;;;;5051022;28;20029;-66
2022/05/18 08:19:15;;;;;;;5.45;2.33;;;21.60;99.90;;;;;;5051090;28;20037;-67
2022/05/18 08:21:41;;;;;;;5.43;2.85;;;21.70;99.90;;;;;;5051159;28;20432;-66
2022/05/18 08:24:08;;;;;;;6.68;2.60;;;21.70;99.90;;;;;;5051156;28;20287;-66
2022/05/18 08:26:34;;;;;;;5.80;2.22;;;21.80;99.90;;;;;;5050915;28;20032;-67
2022/05/18 08:29:02;;;;;;;7.05;2.60;;;21.80;99.90;;;;;;5050888;28;20478;-66
2022/05/18 08:31:29;;;;;;;6.63;2.80;;;21.70;99.90;;;;;;5051142;28;20033;-66
2022/05/18 08:33:55;;;;;;;5.93;2.78;;;21.70;99.90;;;;;;5051286;28;20040;-66
2022/05/18 08:36:22;;;;;;;9.23;2.80;;;21.70;99.90;;;;;;5050839;28;20021;-67
2022/05/18 08:38:48;;;;;;;4.45;2.15;;;21.80;99.90;;;;;;5050819;28;20033;-66
2022/05/18 08:41:42;;;;;;;6.97;2.67;;;21.80;99.40;;;;;;5050897;28;20036;-66
2022/05/18 08:44:13;;;;;;;5.00;2.40;;;21.90;99.20;;;;;;5051433;28;20102;-67
2022/05/18 08:46:49;;;;;;;5.10;2.40;;;22.00;98.60;;;;;;5050839;28;20021;-67
2022/05/18 08:49:29;;;;;;;5.68;2.40;;;22.10;98.80;;;;;;5050840;28;20056;-67
2022/05/18 08:52:14;;;;;;;9.70;2.80;;;22.20;99.00;;;;;;5050726;28;20025;-67
2022/05/18 08:54:43;;;;;;;8.30;2.70;;;22.40;98.40;;;;;;5050984;28;20029;-67
2022/05/18 08:57:17;;;;;;;;;;;22.50;97.80;;;;;;5051240;28;20037;-67
2022/05/18 08:59:45;;;;;;;6.18;2.47;;;22.50;97.40;;;;;;5050466;28;19913;-67
2022/05/18 09:02:23;;;;;;;11.30;3.10;;;22.50;97.60;;;;;;5050662;28;20502;-66
2022/05/18 09:05:03;;;;;;;6.30;2.97;;;22.60;97.30;;;;;;5049717;28;20029;-66
2022/05/18 09:07:36;;;;;;;4.80;2.50;;;22.70;97.20;;;;;;5050459;28;20063;-65
2022/05/18 09:10:13;;;;;;;6.10;2.67;;;22.70;97.30;;;;;;5050585;28;20111;-66
2022/05/18 09:12:45;;;;;;;7.28;3.10;;;22.70;97.50;;;;;;5053436;28;20484;-66
2022/05/18 09:15:15;;;;;;;6.57;3.55;;;22.70;97.70;;;;;;5054769;28;20183;-67
2022/05/18 09:17:55;;;;;;;7.43;3.30;;;22.60;98.00;;;;;;5053334;28;20044;-66
2022/05/18 09:20:49;;;;;;;5.22;3.10;;;22.60;97.60;;;;;;5054363;28;20060;-66
2022/05/18 09:23:21;;;;;;;8.10;3.00;;;22.70;97.40;;;;;;5054451;28;20021;-66
2022/05/18 09:25:56;;;;;;;9.68;3.50;;;22.70;97.20;;;;;;5054573;28;20207;-66
2022/05/18 09:29:16;;;;;;;6.13;2.60;;;22.70;96.80;;;;;;5053373;28;20037;-66
2022/05/18 09:31:48;;;;;;;7.63;2.47;;;22.80;96.60;;;;;;5055069;28;20028;-66
2022/05/18 09:34:23;;;;;;;9.93;4.22;;;22.80;97.00;;;;;;5057190;28;20041;-66
2022/05/18 09:37:26;;;;;;;6.90;3.80;;;22.80;97.20;;;;;;5054161;28;20036;-66
2022/05/18 09:40:18;;;;;;;7.00;3.42;;;22.80;97.50;;;;;;5054037;28;20053;-66
2022/05/18 09:43:04;;;;;;;5.50;2.80;;;22.70;97.80;;;;;;5055757;28;20037;-66
2022/05/18 09:45:34;;;;;;;6.20;2.97;;;22.70;97.40;;;;;;5054157;28;20029;-66
2022/05/18 09:48:07;;;;;;;5.70;2.78;;;22.70;97.10;;;;;;5054021;28;20497;-66
2022/05/18 09:50:37;;;;;;;6.55;3.08;;;22.70;97.50;;;;;;5053864;28;20414;-66
2022/05/18 09:53:04;;;;;;;5.80;2.72;;;22.80;97.30;;;;;;5054099;28;20497;-66
2022/05/18 09:55:31;;;;;;;5.68;2.60;;;22.80;97.10;;;;;;5054195;28;20028;-66
2022/05/18 09:58:14;;;;;;;7.28;2.92;;;22.90;96.80;;;;;;5053760;28;20342;-66
2022/05/18 10:00:41;;;;;;;7.05;2.60;;;22.90;97.40;;;;;;5052862;28;20029;-66
2022/05/18 10:08:54;;;;;;;6.05;2.60;;;22.90;96.30;;;;;;5053710;28;20029;-66
2022/05/18 10:11:24;;;;;;;8.38;3.00;;;23.10;96.30;;;;;;5053783;28;20020;-66
2022/05/18 10:14:07;;;;;;;4.35;2.40;;;23.20;96.00;;;;;;5053997;28;20025;-66
2022/05/18 10:17:01;;;;;;;6.00;3.05;;;23.30;95.80;;;;;;5053727;28;20409;-66
2022/05/18 10:19:37;;;;;;;6.20;2.70;;;23.40;95.60;;;;;;5053853;28;20029;-66
2022/05/18 10:22:05;;;;;;;6.97;2.90;;;23.40;95.30;;;;;;5053966;28;20029;-66
2022/05/18 10:24:50;;;;;;;5.73;2.90;;;23.60;95.00;;;;;;5052778;28;20508;-65
2022/05/18 10:27:16;;;;;;;5.82;2.60;;;23.60;94.60;;;;;;5053789;28;20763;-66
2022/05/18 10:30:00;;;;;;;6.90;3.08;;;23.60;94.80;;;;;;5053592;28;20037;-66
2022/05/18 10:32:27;;;;;;;4.45;2.35;;;23.70;94.90;;;;;;5053959;28;20029;-66
2022/05/18 10:34:55;;;;;;;6.93;2.53;;;23.80;94.30;;;;;;5053246;28;20044;-66
2022/05/18 10:37:24;;;;;;;5.50;2.67;;;23.70;94.40;;;;;;5051737;28;20490;-66
2022/05/18 10:39:50;;;;;;;5.40;2.60;;;23.70;94.60;;;;;;5051556;28;20489;-66
2022/05/18 10:42:24;;;;;;;5.10;2.60;;;23.70;94.80;;;;;;5053170;28;20021;-67
2022/05/18 10:44:52;;;;;;;4.65;2.05;;;23.70;94.50;;;;;;5053284;28;20017;-68
2022/05/18 10:47:22;;;;;;;7.53;3.92;;;23.70;94.50;;;;;;5052857;28;20048;-67
2022/05/18 10:49:48;;;;;;;9.18;3.55;;;23.70;94.40;;;;;;5051519;28;20493;-67
2022/05/18 10:52:27;;;;;;;5.72;3.17;;;23.70;94.40;;;;;;5052912;28;20293;-68
2022/05/18 10:55:06;;;;;;;6.60;3.40;;;23.70;94.90;;;;;;5052845;28;20025;-67
2022/05/18 10:57:39;;;;;;;7.28;3.85;;;23.80;94.40;;;;;;5052621;28;20029;-67
2022/05/18 11:00:13;;;;;;;4.63;2.80;;;23.70;94.30;;;;;;5052499;28;20037;-67
2022/05/18 11:03:00;;;;;;;10.45;3.80;;;23.80;94.50;;;;;;5052805;28;20079;-67
2022/05/18 11:05:25;;;;;;;4.78;2.90;;;23.80;94.20;;;;;;5052661;28;20021;-67
2022/05/18 11:07:51;;;;;;;9.60;3.88;;;23.80;93.90;;;;;;5052454;28;20486;-67
2022/05/18 11:10:17;;;;;;;6.78;3.35;;;23.90;93.80;;;;;;5052428;28;20041;-67
2022/05/18 11:13:07;;;;;;;4.25;2.55;;;23.90;94.10;;;;;;5052624;28;20031;-67
2022/05/18 11:16:09;;;;;;;5.50;2.83;;;23.90;93.70;;;;;;5052507;28;20036;-67
2022/05/18 11:18:50;;;;;;;5.88;2.90;;;23.90;93.30;;;;;;5052269;28;20509;-67
2022/05/18 11:21:48;;;;;;;6.30;3.10;;;23.90;93.00;;;;;;5051088;28;20029;-67
2022/05/18 11:24:44;;;;;;;6.57;2.33;;;23.90;92.80;;;;;;5053670;28;20051;-67
2022/05/18 11:27:37;;;;;;;4.88;2.35;;;24.00;92.10;;;;;;5052107;28;20024;-67
2022/05/18 11:30:08;;;;;;;6.18;3.38;;;24.00;92.50;;;;;;5052072;28;20021;-67
2022/05/18 11:32:58;;;;;;;6.65;3.15;;;24.10;92.50;;;;;;5052150;28;20029;-67
2022/05/18 11:35:46;;;;;;;6.30;3.45;;;24.10;92.30;;;;;;5052135;28;20056;-67
2022/05/18 11:38:18;;;;;;;5.28;2.92;;;24.00;93.00;;;;;;5052179;28;20037;-67
2022/05/18 11:41:06;;;;;;;6.72;3.22;;;24.10;91.90;;;;;;5051849;28;20033;-67
2022/05/18 11:43:43;;;;;;;8.30;4.07;;;24.20;91.40;;;;;;5051974;28;20079;-67
2022/05/18 11:46:33;;;;;;;6.35;2.70;;;24.30;91.30;;;;;;5051603;28;20063;-67
2022/05/18 11:49:17;;;;;;;6.30;2.90;;;24.40;90.90;;;;;;5051640;28;20099;-67
2022/05/18 11:51:54;;;;;;;6.80;3.45;;;24.50;91.00;;;;;;5051804;28;20025;-67
2022/05/18 11:54:40;;;;;;;7.40;2.87;;;24.50;90.70;;;;;;5051831;28;20021;-67
2022/05/18 11:57:13;;;;;;;6.03;2.53;;;24.70;88.90;;;;;;5051420;28;20320;-67
2022/05/18 11:59:58;;;;;;;4.50;2.63;;;24.70;88.30;;;;;;5051398;28;20035;-67
2022/05/18 12:02:57;;;;;;;6.90;3.05;;;24.80;88.80;;;;;;5051567;28;20025;-67
2022/05/18 12:05:54;;;;;;;4.97;3.13;;;24.70;88.40;;;;;;5051427;28;20104;-67
2022/05/18 12:08:39;;;;;;;9.30;3.75;;;24.80;88.40;;;;;;5051442;28;20029;-67
2022/05/18 12:11:37;;;;;;;7.60;3.35;;;24.70;90.00;;;;;;5051329;28;20120;-67
2022/05/18 12:14:24;;;;;;;5.13;2.92;;;24.60;90.70;;;;;;5060731;28;20037;-67
2022/05/18 12:17:20;;;;;;;5.00;2.70;;;24.60;90.50;;;;;;5051447;28;20045;-67
2022/05/18 12:20:28;;;;;;;5.45;2.63;;;24.50;90.50;;;;;;5050891;28;20029;-68
2022/05/18 12:25:47;;;;;;;5.28;2.83;;;24.20;92.00;;;;;;5029770;28;20406;-65
2022/05/18 12:28:14;;;;;;;4.85;2.60;;;24.10;91.90;;;;;;5031859;28;20441;-65
2022/05/18 12:30:43;;;;;;;5.18;3.05;;;24.20;91.50;;;;;;5031259;28;20030;-65
2022/05/18 12:33:10;;;;;;;4.43;2.60;;;24.30;91.10;;;;;;5031330;28;20107;-65
2022/05/18 12:35:40;;;;;;;6.43;3.42;;;24.30;90.70;;;;;;5031684;28;20040;-65
2022/05/18 12:38:13;;;;;;;6.80;2.75;;;24.50;89.20;;;;;;5031313;28;20030;-65
2022/05/18 12:40:54;;;;;;;6.97;3.40;;;24.70;87.10;;;;;;5031337;28;20056;-65
2022/05/18 12:43:23;;;;;;;5.80;3.47;;;24.90;85.60;;;;;;5031514;28;20112;-65
2022/05/18 12:45:54;;;;;;;5.68;2.20;;;25.10;84.50;;;;;;5030926;28;20036;-65
2022/05/18 12:48:34;;;;;;;4.88;2.63;;;25.10;83.40;;;;;;5031461;28;20036;-65
2022/05/18 12:51:06;;;;;;;4.50;2.30;;;25.20;82.30;;;;;;5031077;28;20076;-65
2022/05/18 12:53:55;;;;;;;5.05;2.90;;;25.30;81.40;;;;;;5031171;28;20109;-65
2022/05/18 12:56:36;;;;;;;4.70;2.67;;;25.20;82.60;;;;;;5031104;28;20535;-65
2022/05/18 12:59:23;;;;;;;5.38;2.30;;;25.00;83.00;;;;;;5031016;28;20025;-65
2022/05/18 13:02:03;;;;;;;4.88;2.20;;;24.90;83.40;;;;;;5030998;28;20363;-65
2022/05/18 13:04:40;;;;;;;4.47;2.42;;;24.80;83.60;;;;;;5031231;28;20026;-65
2022/05/18 13:07:29;;;;;;;5.57;2.60;;;24.80;84.00;;;;;;5031003;28;20439;-65
2022/05/18 13:10:09;;;;;;;;;;;24.80;83.40;;;;;;5031612;28;20367;-65
2022/05/18 13:12:58;;;;;;;4.88;2.47;;;24.90;82.50;;;;;;5030960;28;19909;-65
2022/05/18 13:15:55;;;;;;;5.28;2.83;;;25.00;82.70;;;;;;5031215;28;20025;-65
2022/05/18 13:18:35;;;;;;;4.32;2.20;;;25.10;81.00;;;;;;5030934;28;20026;-65
2022/05/18 13:21:28;;;;;;;5.15;2.65;;;25.10;81.20;;;;;;5030907;28;20034;-65
2022/05/18 13:24:04;;;;;;;5.97;2.40;;;25.00;82.60;;;;;;5030799;28;20079;-65
2022/05/18 13:26:36;;;;;;;3.83;2.35;;;25.20;81.70;;;;;;5030678;28;20029;-65
2022/05/18 13:29:13;;;;;;;4.30;2.75;;;25.30;79.10;;;;;;5030872;28;20038;-65
2022/05/18 13:31:40;;;;;;;4.72;2.38;;;25.40;79.70;;;;;;5030656;28;20036;-65